Time;durP1;ratioP1;P1;durP2;ratioP2;P2;SDS_P1;SDS_P2;PMS_P1;PMS_P2;Temp;Humidity;BMP_temperature;BMP_pressure;BME280_temperature;BME280_humidity;BME280_pressure;Samples;Min_cycle;Max_cycle;Signal;HPM_P1;HPM_P2
2022/06/18 00:00:04;;;;;;;4.47;2.40;;;;;;;;;;4961969;28;20592;-71
2022/06/18 00:02:36;;;;;;;3.70;2.10;;;;;;;;;;4962934;28;20351;-71
2022/06/18 00:05:03;;;;;;;4.10;2.40;;;;;;;;;;4963925;28;20236;-71
2022/06/18 00:07:51;;;;;;;4.37;2.40;;;;;;;;;;4960044;28;20231;-70
2022/06/18 00:10:19;;;;;;;2.97;2.10;;;;;;;;;;4961576;28;20221;-71
2022/06/18 00:15:35;;;;;;;4.37;2.00;;;;;;;;;;4961415;28;20239;-70
2022/06/18 00:18:02;;;;;;;3.23;2.00;;;;;;;;;;4959388;28;20228;-70
2022/06/18 00:20:30;;;;;;;3.80;1.80;;;;;;;;;;4961676;28;20228;-71
2022/06/18 00:22:57;;;;;;;3.20;1.90;;;;;;;;;;4961612;28;20316;-71
2022/06/18 00:25:34;;;;;;;3.57;2.30;;;;;;;;;;4963444;28;20235;-70
2022/06/18 00:28:01;;;;;;;4.33;2.30;;;;;;;;;;4963512;28;20314;-71
2022/06/18 00:30:29;;;;;;;2.40;1.90;;;;;;;;;;4961919;28;20228;-70
2022/06/18 00:32:55;;;;;;;2.73;2.13;;;;;;;;;;4961825;28;20220;-70
2022/06/18 00:35:22;;;;;;;3.13;1.90;;;;;;;;;;4959998;28;20307;-71
2022/06/18 00:37:55;;;;;;;4.87;2.20;;;;;;;;;;4945689;28;20229;-71
2022/06/18 00:40:41;;;;;;;3.00;2.00;;;;;;;;;;4939046;28;20224;-71
2022/06/18 00:43:18;;;;;;;3.17;2.00;;;;;;;;;;4954384;28;31564;-71
2022/06/18 00:46:10;;;;;;;5.47;2.30;;;;;;;;;;4947811;28;20649;-71
2022/06/18 00:48:55;;;;;;;3.80;2.40;;;;;;;;;;4960864;28;20643;-70
2022/06/18 00:51:23;;;;;;;3.60;2.70;;;;;;;;;;4945213;28;20228;-71
2022/06/18 00:53:52;;;;;;;4.20;2.20;;;;;;;;;;4945331;28;20595;-71
2022/06/18 00:56:40;;;;;;;3.90;2.00;;;;;;;;;;4957279;28;20286;-71
2022/06/18 00:59:14;;;;;;;2.87;1.90;;;;;;;;;;4966562;28;20229;-70
2022/06/18 01:01:43;;;;;;;3.37;1.80;;;;;;;;;;4949891;28;20229;-71
2022/06/18 01:04:27;;;;;;;3.00;2.10;;;;;;;;;;4941053;28;20280;-71
2022/06/18 01:06:59;;;;;;;3.83;2.03;;;;;;;;;;4971107;28;20240;-71
2022/06/18 01:09:25;;;;;;;4.73;2.27;;;;;;;;;;4935709;28;20229;-71
2022/06/18 01:11:52;;;;;;;3.37;2.20;;;;;;;;;;4946250;28;20767;-71
2022/06/18 01:14:19;;;;;;;4.13;2.20;;;;;;;;;;4953587;28;20281;-71
2022/06/18 01:16:46;;;;;;;2.93;1.87;;;;;;;;;;4960614;28;20227;-71
2022/06/18 01:19:19;;;;;;;3.30;2.10;;;;;;;;;;4940921;28;20311;-71
2022/06/18 01:21:55;;;;;;;3.37;2.10;;;;;;;;;;4947244;28;20227;-71
2022/06/18 01:24:22;;;;;;;3.63;2.27;;;;;;;;;;4957765;28;20359;-71
2022/06/18 01:26:50;;;;;;;4.90;2.00;;;;;;;;;;4957211;28;23401;-71
2022/06/18 01:29:18;;;;;;;2.97;1.97;;;;;;;;;;4936101;28;20663;-71
2022/06/18 01:31:46;;;;;;;3.40;2.00;;;;;;;;;;4957640;28;20228;-70
2022/06/18 01:34:13;;;;;;;2.77;1.90;;;;;;;;;;4960634;28;20701;-71
2022/06/18 01:36:47;;;;;;;4.03;1.93;;;;;;;;;;4952370;28;20232;-71
2022/06/18 01:39:19;;;;;;;3.87;2.20;;;;;;;;;;4958805;28;20279;-71
2022/06/18 01:41:49;;;;;;;3.50;2.23;;;;;;;;;;4948703;28;20242;-71
2022/06/18 01:44:39;;;;;;;3.13;2.17;;;;;;;;;;4930726;28;216365;-71
2022/06/18 01:47:09;;;;;;;5.73;2.23;;;;;;;;;;4960767;28;20239;-71
2022/06/18 01:49:59;;;;;;;1.87;1.60;;;;;;;;;;4949982;28;26732;-71
2022/06/18 01:52:29;;;;;;;3.70;1.90;;;;;;;;;;4930422;28;20227;-71
2022/06/18 01:55:03;;;;;;;1.53;1.40;;;;;;;;;;4940981;28;20606;-70
2022/06/18 01:57:31;;;;;;;2.50;1.40;;;;;;;;;;4939741;28;20740;-71
2022/06/18 02:00:02;;;;;;;1.93;1.30;;;;;;;;;;4943042;28;20331;-70
2022/06/18 02:02:40;;;;;;;1.33;1.20;;;;;;;;;;4944529;28;20228;-71
2022/06/18 02:05:07;;;;;;;2.90;1.30;;;;;;;;;;4940042;28;20594;-70
2022/06/18 02:07:34;;;;;;;2.87;1.47;;;;;;;;;;4962039;28;20231;-70
2022/06/18 02:10:08;;;;;;;2.20;1.47;;;;;;;;;;4957935;28;20704;-71
2022/06/18 02:12:35;;;;;;;3.00;1.53;;;;;;;;;;4959694;28;20235;-71
2022/06/18 02:15:08;;;;;;;2.97;1.50;;;;;;;;;;4958931;28;20370;-71
2022/06/18 02:17:34;;;;;;;1.97;1.60;;;;;;;;;;4961085;28;20945;-71
2022/06/18 02:20:07;;;;;;;2.90;1.20;;;;;;;;;;4961802;28;20248;-71
2022/06/18 02:22:36;;;;;;;4.53;1.87;;;;;;;;;;4958613;28;20959;-70
2022/06/18 02:25:03;;;;;;;1.70;1.47;;;;;;;;;;4955924;28;20253;-71
2022/06/18 02:27:29;;;;;;;2.80;1.23;;;;;;;;;;4967268;28;20236;-70
2022/06/18 02:29:56;;;;;;;3.43;1.40;;;;;;;;;;4978863;28;20244;-71
2022/06/18 02:32:29;;;;;;;1.90;1.40;;;;;;;;;;4967784;28;20247;-71
2022/06/18 02:34:56;;;;;;;1.60;1.17;;;;;;;;;;4965585;28;20224;-70
2022/06/18 02:37:23;;;;;;;2.70;1.20;;;;;;;;;;4973232;28;20243;-70
2022/06/18 02:40:15;;;;;;;2.37;1.10;;;;;;;;;;4979922;28;20215;-71
2022/06/18 02:42:42;;;;;;;1.53;1.17;;;;;;;;;;4962957;28;20310;-71
2022/06/18 02:45:09;;;;;;;2.07;1.20;;;;;;;;;;4966398;28;20228;-70
2022/06/18 02:47:36;;;;;;;1.80;1.20;;;;;;;;;;4964475;28;20710;-71
2022/06/18 02:50:07;;;;;;;2.13;1.50;;;;;;;;;;4978417;28;20227;-70
2022/06/18 02:52:35;;;;;;;1.97;1.43;;;;;;;;;;4978115;28;24127;-70
2022/06/18 02:55:08;;;;;;;1.80;1.30;;;;;;;;;;4977919;28;20315;-72
2022/06/18 02:57:35;;;;;;;1.43;1.33;;;;;;;;;;4963140;28;20390;-70
2022/06/18 03:00:03;;;;;;;2.67;1.23;;;;;;;;;;4966492;28;20231;-71
2022/06/18 03:02:30;;;;;;;3.13;1.47;;;;;;;;;;4969296;28;20224;-70
2022/06/18 03:04:56;;;;;;;1.60;1.40;;;;;;;;;;4963243;28;20259;-70
2022/06/18 03:07:24;;;;;;;4.10;1.70;;;;;;;;;;4953506;28;20228;-70
2022/06/18 03:12:39;;;;;;;2.23;1.60;;;;;;;;;;5000685;28;20311;-70
2022/06/18 03:15:06;;;;;;;2.40;1.23;;;;;;;;;;5001627;28;23326;-70
2022/06/18 03:17:33;;;;;;;2.30;1.20;;;;;;;;;;4986206;28;20230;-70
2022/06/18 03:20:01;;;;;;;2.43;1.30;;;;;;;;;;4998013;28;20250;-70
2022/06/18 03:22:28;;;;;;;1.83;1.10;;;;;;;;;;4955667;28;20241;-72
2022/06/18 03:24:55;;;;;;;1.20;1.10;;;;;;;;;;4963726;28;20223;-71
2022/06/18 03:27:22;;;;;;;1.70;1.30;;;;;;;;;;4957175;28;20232;-71
2022/06/18 03:29:53;;;;;;;4.50;1.20;;;;;;;;;;4960584;28;20236;-71
2022/06/18 03:32:23;;;;;;;1.23;1.10;;;;;;;;;;4952619;28;20232;-70
2022/06/18 03:34:50;;;;;;;3.60;1.10;;;;;;;;;;4962403;28;20236;-70
2022/06/18 03:37:18;;;;;;;2.70;1.20;;;;;;;;;;4964959;28;20429;-70
2022/06/18 03:39:45;;;;;;;6.13;1.23;;;;;;;;;;4961825;28;20276;-71
2022/06/18 03:42:13;;;;;;;3.00;1.10;;;;;;;;;;4963497;28;20225;-70
2022/06/18 03:44:39;;;;;;;1.10;0.90;;;;;;;;;;4962543;28;20596;-71
2022/06/18 03:47:06;;;;;;;1.93;1.00;;;;;;;;;;4965480;28;20255;-70
2022/06/18 03:49:38;;;;;;;2.40;0.90;;;;;;;;;;4951689;28;20629;-69
2022/06/18 03:52:06;;;;;;;1.93;1.00;;;;;;;;;;4992153;28;20238;-71
2022/06/18 03:54:33;;;;;;;3.13;1.00;;;;;;;;;;4984462;28;20226;-70
2022/06/18 03:57:03;;;;;;;4.33;1.00;;;;;;;;;;5014317;28;20223;-70
2022/06/18 03:59:31;;;;;;;2.80;1.00;;;;;;;;;;4965178;28;20255;-70
2022/06/18 04:01:58;;;;;;;1.87;1.07;;;;;;;;;;4960637;28;20232;-71
2022/06/18 04:04:30;;;;;;;2.17;1.10;;;;;;;;;;4962137;28;20583;-71
2022/06/18 04:06:57;;;;;;;2.50;1.20;;;;;;;;;;4977586;28;20746;-70
2022/06/18 04:09:37;;;;;;;2.23;1.50;;;;;;;;;;4976929;28;20239;-70
2022/06/18 04:12:09;;;;;;;2.57;1.43;;;;;;;;;;4944380;28;20585;-70
2022/06/18 04:15:12;;;;;;;1.90;1.30;;;;;;;;;;4902780;29;20272;-70
2022/06/18 04:17:59;;;;;;;2.63;1.13;;;;;;;;;;4949421;28;20232;-70
2022/06/18 04:20:44;;;;;;;1.40;1.20;;;;;;;;;;4940783;28;20291;-70
2022/06/18 04:23:15;;;;;;;2.77;1.47;;;;;;;;;;4950807;28;20247;-71
2022/06/18 04:25:44;;;;;;;1.50;1.40;;;;;;;;;;4946967;28;20228;-70
2022/06/18 04:28:12;;;;;;;2.97;1.40;;;;;;;;;;4962305;28;23502;-70
2022/06/18 04:30:42;;;;;;;3.87;1.70;;;;;;;;;;4949562;28;20247;-71
2022/06/18 04:33:14;;;;;;;2.03;1.40;;;;;;;;;;4947627;28;215691;-71
2022/06/18 04:35:53;;;;;;;3.40;1.20;;;;;;;;;;4943967;28;20591;-71
2022/06/18 04:38:21;;;;;;;1.97;1.50;;;;;;;;;;4972260;28;20247;-70
2022/06/18 04:40:58;;;;;;;3.87;1.67;;;;;;;;;;4999214;28;21172;-70
2022/06/18 04:43:49;;;;;;;2.07;1.47;;;;;;;;;;4982124;28;20229;-70
2022/06/18 04:46:17;;;;;;;2.50;1.80;;;;;;;;;;4977112;28;216075;-70
2022/06/18 04:48:48;;;;;;;4.13;2.00;;;;;;;;;;4982035;28;20227;-71
2022/06/18 04:51:15;;;;;;;4.33;1.80;;;;;;;;;;4962156;28;26851;-70
2022/06/18 04:53:43;;;;;;;3.57;2.00;;;;;;;;;;4960416;28;20228;-71
2022/06/18 04:56:10;;;;;;;4.27;2.10;;;;;;;;;;4941913;28;20228;-70
2022/06/18 04:58:41;;;;;;;3.20;2.20;;;;;;;;;;4946229;28;20231;-71
2022/06/18 05:01:09;;;;;;;2.63;1.83;;;;;;;;;;4945085;28;20233;-70
2022/06/18 05:03:54;;;;;;;5.83;2.50;;;;;;;;;;4942346;28;20283;-70
2022/06/18 05:06:47;;;;;;;5.57;2.33;;;;;;;;;;4970114;28;20228;-70
2022/06/18 05:09:32;;;;;;;3.97;2.40;;;;;;;;;;4963091;28;20236;-70
2022/06/18 05:12:09;;;;;;;4.93;2.83;;;;;;;;;;4940022;28;20229;-70
2022/06/18 05:15:14;;;;;;;4.93;3.83;;;;;;;;;;4906761;28;21065;-70
2022/06/18 05:17:43;;;;;;;4.60;3.20;;;;;;;;;;4939043;28;20225;-71
2022/06/18 05:20:21;;;;;;;3.87;2.63;;;;;;;;;;4947548;28;20224;-75
2022/06/18 05:23:06;;;;;;;3.37;2.80;;;;;;;;;;4926031;28;20247;-71
2022/06/18 05:25:33;;;;;;;3.80;2.37;;;;;;;;;;4966605;28;20715;-71
2022/06/18 05:28:00;;;;;;;6.60;2.77;;;;;;;;;;4941870;28;20224;-72
2022/06/18 05:30:30;;;;;;;7.37;2.90;;;;;;;;;;4953093;28;20236;-72
2022/06/18 05:32:59;;;;;;;3.77;2.80;;;;;;;;;;4955662;28;20315;-72
2022/06/18 05:35:27;;;;;;;3.20;2.50;;;;;;;;;;4933591;28;20220;-69
2022/06/18 05:37:54;;;;;;;3.63;2.30;;;;;;;;;;4953664;28;232589;-71
2022/06/18 05:40:21;;;;;;;3.80;2.37;;;;;;;;;;4953403;28;220003;-71
2022/06/18 05:42:48;;;;;;;4.50;2.90;;;;;;;;;;4941670;28;220764;-71
2022/06/18 05:45:15;;;;;;;4.83;3.17;;;;;;;;;;4962616;28;20235;-69
2022/06/18 05:47:42;;;;;;;4.07;2.33;;;;;;;;;;4947452;28;20698;-73
2022/06/18 05:50:11;;;;;;;4.03;2.60;;;;;;;;;;4955764;28;20608;-75
2022/06/18 05:52:39;;;;;;;5.97;2.43;;;;;;;;;;4951642;28;20232;-74
2022/06/18 05:55:28;;;;;;;4.47;2.03;;;;;;;;;;4933926;28;20302;-72
2022/06/18 05:58:14;;;;;;;3.20;1.90;;;;;;;;;;4958914;28;20231;-72
2022/06/18 06:00:47;;;;;;;2.33;1.37;;;;;;;;;;4926099;28;20220;-73
2022/06/18 06:03:14;;;;;;;2.97;1.50;;;;;;;;;;4946528;28;20251;-71
2022/06/18 06:05:41;;;;;;;5.50;2.00;;;;;;;;;;4949005;28;20558;-73
2022/06/18 06:08:09;;;;;;;3.70;1.53;;;;;;;;;;4927409;28;20224;-74
2022/06/18 06:13:24;;;;;;;2.57;1.37;;;;;;;;;;4958825;28;20224;-70
2022/06/18 06:15:51;;;;;;;2.13;1.30;;;;;;;;;;4960316;28;20228;-72
2022/06/18 06:18:25;;;;;;;2.57;1.60;;;;;;;;;;4932069;28;226028;-71
2022/06/18 06:20:52;;;;;;;2.63;1.40;;;;;;;;;;4961312;28;20888;-71
2022/06/18 06:23:19;;;;;;;2.17;1.40;;;;;;;;;;4944269;28;20238;-72
2022/06/18 06:26:08;;;;;;;1.97;1.10;;;;;;;;;;4924649;28;221515;-73
2022/06/18 06:28:38;;;;;;;2.97;1.40;;;;;;;;;;4944339;28;20268;-78
2022/06/18 06:31:23;;;;;;;1.93;1.60;;;;;;;;;;4944362;28;20227;-72
2022/06/18 06:33:50;;;;;;;1.50;1.30;;;;;;;;;;4961290;28;20247;-72
2022/06/18 06:36:17;;;;;;;1.53;1.40;;;;;;;;;;4941998;28;20703;-72
2022/06/18 06:38:44;;;;;;;3.37;1.90;;;;;;;;;;4961120;28;20278;-72
2022/06/18 06:41:12;;;;;;;1.57;1.40;;;;;;;;;;4948197;28;20236;-71
2022/06/18 06:43:38;;;;;;;2.87;1.63;;;;;;;;;;4952426;28;20229;-73
2022/06/18 06:46:05;;;;;;;3.40;1.90;;;;;;;;;;4956101;28;20587;-73
2022/06/18 06:48:33;;;;;;;3.87;1.60;;;;;;;;;;4946116;28;20244;-73
2022/06/18 06:51:00;;;;;;;1.77;1.50;;;;;;;;;;4949243;28;20305;-72
2022/06/18 06:53:27;;;;;;;4.50;2.03;;;;;;;;;;4954102;28;20241;-71
2022/06/18 06:58:39;;;;;;;4.03;1.90;;;;;;;;;;4945204;28;20228;-72
2022/06/18 07:01:05;;;;;;;3.17;2.20;;;;;;;;;;4941872;28;20319;-72
2022/06/18 07:03:33;;;;;;;3.90;2.03;;;;;;;;;;4957582;28;20229;-73
2022/06/18 07:06:01;;;;;;;3.30;2.00;;;;;;;;;;4957045;28;20236;-72
2022/06/18 07:08:28;;;;;;;3.13;1.80;;;;;;;;;;4971777;28;20212;-72
2022/06/18 07:10:54;;;;;;;2.70;1.80;;;;;;;;;;4924376;28;228058;-73
2022/06/18 07:13:27;;;;;;;2.97;2.20;;;;;;;;;;4942723;28;20255;-73
2022/06/18 07:15:55;;;;;;;3.57;2.00;;;;;;;;;;4956107;28;20275;-73
2022/06/18 07:18:23;;;;;;;4.40;2.00;;;;;;;;;;4963761;28;20231;-73
2022/06/18 07:20:50;;;;;;;3.40;1.77;;;;;;;;;;4957050;28;20225;-72
2022/06/18 07:23:16;;;;;;;3.63;2.17;;;;;;;;;;4928737;28;31733;-73
2022/06/18 07:25:43;;;;;;;3.03;2.20;;;;;;;;;;4960953;28;20233;-72
2022/06/18 07:28:10;;;;;;;2.97;2.20;;;;;;;;;;4958819;28;20228;-72
2022/06/18 07:30:36;;;;;;;2.37;2.07;;;;;;;;;;4952271;28;20237;-72
2022/06/18 07:33:03;;;;;;;5.33;2.30;;;;;;;;;;4954678;28;20240;-73
2022/06/18 07:35:31;;;;;;;3.30;2.10;;;;;;;;;;4953314;28;20596;-72
2022/06/18 07:37:58;;;;;;;2.37;1.90;;;;;;;;;;4953116;28;20241;-72
2022/06/18 07:40:32;;;;;;;2.60;2.17;;;;;;;;;;4955484;28;20244;-72
2022/06/18 07:42:59;;;;;;;4.70;2.23;;;;;;;;;;4954094;28;20951;-73
2022/06/18 07:45:26;;;;;;;3.17;1.90;;;;;;;;;;4955130;28;20233;-72
2022/06/18 07:47:53;;;;;;;3.07;2.23;;;;;;;;;;4951664;28;20237;-72
2022/06/18 07:50:20;;;;;;;2.27;2.07;;;;;;;;;;4946370;28;20236;-72
2022/06/18 07:52:46;;;;;;;5.00;2.30;;;;;;;;;;4943664;28;221534;-71
2022/06/18 07:55:17;;;;;;;2.23;2.03;;;;;;;;;;4952721;28;230209;-73
2022/06/18 07:57:44;;;;;;;2.97;1.83;;;;;;;;;;4948221;28;20229;-72
2022/06/18 08:00:11;;;;;;;2.67;2.10;;;;;;;;;;4949848;28;20235;-72
2022/06/18 08:02:39;;;;;;;4.57;2.17;;;;;;;;;;4949780;28;20224;-72
2022/06/18 08:05:07;;;;;;;4.53;2.27;;;;;;;;;;4925548;28;20506;-72
2022/06/18 08:07:34;;;;;;;2.47;2.10;;;;;;;;;;4945417;28;20353;-72
2022/06/18 08:10:01;;;;;;;2.60;2.20;;;;;;;;;;4926274;28;20233;-72
2022/06/18 08:12:28;;;;;;;2.83;2.30;;;;;;;;;;4958666;28;20719;-71
2022/06/18 08:14:54;;;;;;;2.43;1.90;;;;;;;;;;4961424;28;20946;-71
2022/06/18 08:17:21;;;;;;;3.00;2.00;;;;;;;;;;4949317;28;20352;-72
2022/06/18 08:19:49;;;;;;;2.60;1.70;;;;;;;;;;4951949;28;20283;-71
2022/06/18 08:22:15;;;;;;;1.70;1.60;;;;;;;;;;4946200;28;20239;-72
2022/06/18 08:24:42;;;;;;;3.77;2.20;;;;;;;;;;4952809;28;20692;-71
2022/06/18 08:27:08;;;;;;;3.13;2.07;;;;;;;;;;4953557;28;20252;-72
2022/06/18 08:29:35;;;;;;;3.67;2.07;;;;;;;;;;4951744;28;20224;-72
2022/06/18 08:32:03;;;;;;;3.53;1.90;;;;;;;;;;4949730;28;20281;-72
2022/06/18 08:34:29;;;;;;;5.63;2.30;;;;;;;;;;4949614;28;20260;-73
2022/06/18 08:36:57;;;;;;;4.10;1.90;;;;;;;;;;4951243;28;20232;-71
2022/06/18 08:39:23;;;;;;;3.53;2.10;;;;;;;;;;4941570;28;216691;-71
2022/06/18 08:41:50;;;;;;;3.03;1.80;;;;;;;;;;4955500;28;26299;-72
2022/06/18 08:44:29;;;;;;;4.30;1.70;;;;;;;;;;4953642;28;23829;-72
2022/06/18 08:47:08;;;;;;;4.37;2.23;;;;;;;;;;4953129;28;20258;-73
2022/06/18 08:49:40;;;;;;;4.50;1.90;;;;;;;;;;4948662;28;20228;-72
2022/06/18 08:52:13;;;;;;;5.00;2.00;;;;;;;;;;4935826;28;216535;-73
2022/06/18 08:54:52;;;;;;;2.47;2.00;;;;;;;;;;4949406;28;20232;-71
2022/06/18 08:57:23;;;;;;;4.70;1.70;;;;;;;;;;4944878;28;20298;-72
2022/06/18 08:59:50;;;;;;;2.10;1.60;;;;;;;;;;4952831;28;20321;-72
2022/06/18 09:02:22;;;;;;;4.07;1.70;;;;;;;;;;4960055;28;20247;-72
2022/06/18 09:04:58;;;;;;;4.13;2.20;;;;;;;;;;4950325;28;20240;-70
2022/06/18 09:07:43;;;;;;;2.53;1.90;;;;;;;;;;4958812;28;20228;-73
2022/06/18 09:10:22;;;;;;;3.63;2.00;;;;;;;;;;5001552;28;20227;-61
2022/06/18 09:13:00;;;;;;;2.50;1.77;;;;;;;;;;4982560;28;20235;-61
2022/06/18 09:15:28;;;;;;;2.70;1.90;;;;;;;;;;4985025;28;20288;-61
2022/06/18 09:17:57;;;;;;;4.17;2.10;;;;;;;;;;4967661;28;20235;-61
2022/06/18 09:20:23;;;;;;;4.97;1.93;;;;;;;;;;4959211;28;20240;-61
2022/06/18 09:22:51;;;;;;;2.87;2.00;;;;;;;;;;4960907;28;20320;-63
2022/06/18 09:25:18;;;;;;;4.87;1.80;;;;;;;;;;4955609;28;20751;-62
2022/06/18 09:27:52;;;;;;;3.73;2.03;;;;;;;;;;4956571;28;20251;-62
2022/06/18 09:30:38;;;;;;;5.37;2.20;;;;;;;;;;4958139;28;20280;-62
2022/06/18 09:33:08;;;;;;;2.70;1.80;;;;;;;;;;4951659;28;20590;-60
2022/06/18 09:35:44;;;;;;;4.30;1.90;;;;;;;;;;4959682;28;20237;-60
2022/06/18 09:38:13;;;;;;;4.00;1.90;;;;;;;;;;4947859;28;20648;-60
2022/06/18 09:40:47;;;;;;;2.70;1.70;;;;;;;;;;4953411;28;20237;-61
2022/06/18 09:43:37;;;;;;;2.60;1.80;;;;;;;;;;4943367;28;20728;-59
2022/06/18 09:46:09;;;;;;;2.60;2.00;;;;;;;;;;4952783;28;20235;-61
2022/06/18 09:48:36;;;;;;;4.30;1.97;;;;;;;;;;4945839;28;20233;-61
2022/06/18 09:51:04;;;;;;;3.30;1.80;;;;;;;;;;4953742;28;20697;-61
2022/06/18 09:53:32;;;;;;;3.87;1.80;;;;;;;;;;4952685;28;20288;-61
2022/06/18 09:56:01;;;;;;;4.03;1.70;;;;;;;;;;4955284;28;20825;-60
2022/06/18 09:58:29;;;;;;;2.83;1.73;;;;;;;;;;4940945;28;20287;-61
2022/06/18 10:00:56;;;;;;;3.07;1.83;;;;;;;;;;4947051;28;20238;-61
2022/06/18 10:09:15;;;;;;;2.80;1.70;;;;;;;;;;4957289;28;20240;-61
2022/06/18 10:11:42;;;;;;;5.23;2.07;;;;;;;;;;4958297;28;20248;-62
2022/06/18 10:14:12;;;;;;;4.40;1.90;;;;;;;;;;4951369;28;20239;-62
2022/06/18 10:16:39;;;;;;;6.63;2.00;;;;;;;;;;4946890;28;20228;-61
2022/06/18 10:19:12;;;;;;;4.93;1.90;;;;;;;;;;4955889;28;20605;-62
2022/06/18 10:21:42;;;;;;;5.90;1.50;;;;;;;;;;4920015;28;20232;-62
2022/06/18 10:24:19;;;;;;;5.60;1.97;;;;;;;;;;4957758;28;20233;-62
2022/06/18 10:26:49;;;;;;;3.53;1.70;;;;;;;;;;4944168;28;20264;-61
2022/06/18 10:29:18;;;;;;;2.43;1.67;;;;;;;;;;4951815;28;21077;-62
2022/06/18 10:31:45;;;;;;;15.40;2.40;;;;;;;;;;4954614;28;20612;-64
2022/06/18 10:34:21;;;;;;;3.90;1.63;;;;;;;;;;4942282;28;20244;-61
2022/06/18 10:37:05;;;;;;;4.07;1.53;;;;;;;;;;4954656;28;20243;-62
2022/06/18 10:39:35;;;;;;;2.40;1.60;;;;;;;;;;4962400;28;20233;-61
2022/06/18 10:42:14;;;;;;;30.17;2.97;;;;;;;;;;4948775;28;20230;-61
2022/06/18 10:44:50;;;;;;;3.80;1.73;;;;;;;;;;4952110;28;20307;-61
2022/06/18 10:47:18;;;;;;;5.20;1.70;;;;;;;;;;4958148;28;20230;-62
2022/06/18 10:49:46;;;;;;;2.10;1.50;;;;;;;;;;4919473;28;20230;-61
2022/06/18 10:52:22;;;;;;;3.80;1.90;;;;;;;;;;4960805;28;20247;-63
2022/06/18 10:54:49;;;;;;;5.37;1.60;;;;;;;;;;4939692;28;20245;-63
2022/06/18 10:57:23;;;;;;;2.57;1.80;;;;;;;;;;4951678;28;20269;-63
2022/06/18 10:59:52;;;;;;;4.20;1.80;;;;;;;;;;4956754;28;20233;-63
2022/06/18 11:02:32;;;;;;;3.10;2.10;;;;;;;;;;4957620;28;20970;-62
2022/06/18 11:05:20;;;;;;;4.63;1.90;;;;;;;;;;4954940;28;20228;-62
2022/06/18 11:07:49;;;;;;;2.83;1.70;;;;;;;;;;4953244;28;20684;-62
2022/06/18 11:10:20;;;;;;;3.73;2.10;;;;;;;;;;4970715;28;20242;-64
2022/06/18 11:12:53;;;;;;;5.90;2.00;;;;;;;;;;4957193;28;20239;-64
2022/06/18 11:15:28;;;;;;;3.07;1.90;;;;;;;;;;4957500;28;20700;-60
2022/06/18 11:17:55;;;;;;;2.60;1.70;;;;;;;;;;4951627;28;20959;-63
2022/06/18 11:20:26;;;;;;;2.67;1.43;;;;;;;;;;4951566;28;20233;-61
2022/06/18 11:23:00;;;;;;;4.20;1.67;;;;;;;;;;4961563;28;20233;-67
2022/06/18 11:25:45;;;;;;;3.10;1.77;;;;;;;;;;4957620;28;20312;-62
2022/06/18 11:28:18;;;;;;;2.97;1.70;;;;;;;;;;4946977;28;20243;-62
2022/06/18 11:30:46;;;;;;;5.53;1.73;;;;;;;;;;4957342;28;20247;-63
2022/06/18 11:33:18;;;;;;;3.30;1.90;;;;;;;;;;4965097;28;20311;-63
2022/06/18 11:35:50;;;;;;;5.93;2.20;;;;;;;;;;4960608;28;20228;-63
2022/06/18 11:38:22;;;;;;;2.37;1.60;;;;;;;;;;4957880;28;20224;-63
2022/06/18 11:40:53;;;;;;;2.47;1.60;;;;;;;;;;4962641;28;20228;-63
2022/06/18 11:43:22;;;;;;;2.07;1.83;;;;;;;;;;4951318;28;20975;-63
2022/06/18 11:45:51;;;;;;;1.80;1.70;;;;;;;;;;4961984;28;20244;-63
2022/06/18 11:48:24;;;;;;;3.23;2.10;;;;;;;;;;4943808;28;20239;-63
2022/06/18 11:51:11;;;;;;;4.60;1.70;;;;;;;;;;4952052;28;20623;-63
2022/06/18 11:53:40;;;;;;;2.43;1.67;;;;;;;;;;4940452;28;20701;-62
2022/06/18 11:56:37;;;;;;;3.27;1.90;;;;;;;;;;4945852;28;20315;-62
2022/06/18 11:59:12;;;;;;;2.90;1.80;;;;;;;;;;4942565;28;20240;-63
2022/06/18 12:01:40;;;;;;;3.47;2.20;;;;;;;;;;4946509;28;20367;-60
2022/06/18 12:04:06;;;;;;;2.27;2.00;;;;;;;;;;4947351;28;20237;-65
2022/06/18 12:06:54;;;;;;;3.47;1.77;;;;;;;;;;4950611;28;20227;-62
2022/06/18 12:09:22;;;;;;;7.10;2.27;;;;;;;;;;4986640;28;20277;-61
2022/06/18 12:12:10;;;;;;;3.00;1.70;;;;;;;;;;4956247;28;20255;-62
2022/06/18 12:14:49;;;;;;;5.03;2.00;;;;;;;;;;4956069;28;20299;-66
2022/06/18 12:17:18;;;;;;;3.77;1.73;;;;;;;;;;4952975;28;20967;-63
2022/06/18 12:20:08;;;;;;;3.20;1.80;;;;;;;;;;4938215;28;20221;-62
2022/06/18 12:22:38;;;;;;;2.40;1.77;;;;;;;;;;4932389;28;20229;-63
2022/06/18 12:25:23;;;;;;;3.67;1.80;;;;;;;;;;4950086;28;20284;-63
2022/06/18 12:28:11;;;;;;;8.83;2.63;;;;;;;;;;4957034;28;20239;-63
2022/06/18 12:31:06;;;;;;;14.70;3.30;;;;;;;;;;4949493;28;20241;-63
2022/06/18 12:33:47;;;;;;;5.43;2.17;;;;;;;;;;4909706;28;20244;-62
2022/06/18 12:36:28;;;;;;;5.00;1.87;;;;;;;;;;4961749;28;20307;-62
2022/06/18 12:38:59;;;;;;;2.83;1.60;;;;;;;;;;4961110;28;20233;-62
2022/06/18 12:41:40;;;;;;;3.17;1.70;;;;;;;;;;4949753;28;20773;-62
2022/06/18 12:44:17;;;;;;;28.43;3.03;;;;;;;;;;4960115;28;20699;-62
2022/06/18 12:46:58;;;;;;;3.00;1.83;;;;;;;;;;4926894;28;20722;-63
2022/06/18 12:49:44;;;;;;;3.13;1.97;;;;;;;;;;4957623;28;20247;-62
2022/06/18 12:52:18;;;;;;;8.53;2.00;;;;;;;;;;4957620;28;20226;-62
2022/06/18 12:54:54;;;;;;;5.60;2.10;;;;;;;;;;4957021;28;20591;-62
2022/06/18 12:57:33;;;;;;;4.90;1.80;;;;;;;;;;4948069;28;217504;-62
2022/06/18 13:00:10;;;;;;;5.13;1.67;;;;;;;;;;4955452;28;21069;-63
2022/06/18 13:02:40;;;;;;;9.10;2.17;;;;;;;;;;4942926;28;20320;-63
2022/06/18 13:05:10;;;;;;;7.50;2.00;;;;;;;;;;4962284;28;20237;-62
2022/06/18 13:07:46;;;;;;;2.53;1.93;;;;;;;;;;4943503;28;20236;-62
2022/06/18 13:10:31;;;;;;;5.47;2.07;;;;;;;;;;4961493;28;20691;-63
2022/06/18 13:12:59;;;;;;;7.13;1.97;;;;;;;;;;4947201;28;20238;-62
2022/06/18 13:15:33;;;;;;;5.63;2.13;;;;;;;;;;4945631;28;20242;-63
2022/06/18 13:18:12;;;;;;;5.27;1.87;;;;;;;;;;4952496;28;20231;-63
2022/06/18 13:20:43;;;;;;;3.27;1.93;;;;;;;;;;4954259;28;20254;-63
2022/06/18 13:28:51;;;;;;;3.50;1.80;;;;;;;;;;4947975;28;20240;-62
2022/06/18 13:31:45;;;;;;;3.00;1.80;;;;;;;;;;4934864;28;20247;-62
2022/06/18 13:34:15;;;;;;;13.03;2.13;;;;;;;;;;4956067;28;20229;-62
2022/06/18 13:37:04;;;;;;;4.83;2.10;;;;;;;;;;4947258;28;20304;-62
2022/06/18 13:39:51;;;;;;;3.80;1.87;;;;;;;;;;4942473;28;20233;-62
2022/06/18 13:42:52;;;;;;;9.90;2.03;;;;;;;;;;4944815;28;20233;-63
2022/06/18 13:45:30;;;;;;;5.83;1.90;;;;;;;;;;4947836;28;20228;-62
2022/06/18 13:48:13;;;;;;;4.57;2.20;;;;;;;;;;4930477;28;20233;-63
2022/06/18 13:50:47;;;;;;;8.23;2.37;;;;;;;;;;4946251;28;20229;-62
2022/06/18 13:53:36;;;;;;;4.60;2.10;;;;;;;;;;4954577;28;20225;-62
2022/06/18 13:56:23;;;;;;;5.20;2.33;;;;;;;;;;4944944;28;20233;-62
2022/06/18 13:58:54;;;;;;;5.30;2.20;;;;;;;;;;4952614;28;20285;-63
2022/06/18 14:01:21;;;;;;;4.63;2.50;;;;;;;;;;4953671;28;20272;-62
2022/06/18 14:03:52;;;;;;;5.33;2.40;;;;;;;;;;4951814;28;20237;-62
2022/06/18 14:06:19;;;;;;;4.90;2.30;;;;;;;;;;4956296;28;20247;-62
2022/06/18 14:09:05;;;;;;;5.03;2.17;;;;;;;;;;4958938;28;20220;-62
2022/06/18 14:11:35;;;;;;;5.73;2.40;;;;;;;;;;4957882;28;20247;-61
2022/06/18 14:14:06;;;;;;;5.93;2.50;;;;;;;;;;4950184;28;20566;-61
2022/06/18 14:17:09;;;;;;;7.73;2.40;;;;;;;;;;4949005;28;20690;-61
2022/06/18 14:19:42;;;;;;;5.20;2.00;;;;;;;;;;4946824;28;20240;-62
2022/06/18 14:22:15;;;;;;;2.03;1.83;;;;;;;;;;4953615;28;20230;-61
2022/06/18 14:24:47;;;;;;;3.20;2.30;;;;;;;;;;4949127;28;20233;-62
2022/06/18 14:27:40;;;;;;;4.23;2.07;;;;;;;;;;4947704;28;20232;-62
2022/06/18 14:30:17;;;;;;;8.50;2.27;;;;;;;;;;4946319;28;20689;-62
2022/06/18 14:32:50;;;;;;;4.63;2.43;;;;;;;;;;4953750;28;20593;-62
2022/06/18 14:35:17;;;;;;;6.33;2.40;;;;;;;;;;4955794;28;20280;-62
2022/06/18 14:37:44;;;;;;;19.93;3.33;;;;;;;;;;4949050;28;20220;-61
2022/06/18 14:40:15;;;;;;;7.10;2.50;;;;;;;;;;4962053;28;20240;-62
2022/06/18 14:42:51;;;;;;;45.37;4.70;;;;;;;;;;4956894;28;20233;-62
2022/06/18 14:45:53;;;;;;;7.53;2.70;;;;;;;;;;4953956;28;20244;-62
2022/06/18 14:48:39;;;;;;;7.43;2.90;;;;;;;;;;4953871;28;20236;-62
2022/06/18 14:51:10;;;;;;;7.67;2.87;;;;;;;;;;4955336;28;20259;-62
2022/06/18 14:53:37;;;;;;;10.83;2.50;;;;;;;;;;4952668;28;20228;-62
2022/06/18 14:56:07;;;;;;;24.73;3.60;;;;;;;;;;4958109;28;20612;-63
2022/06/18 14:58:41;;;;;;;6.27;2.50;;;;;;;;;;4950946;28;20222;-63
2022/06/18 15:01:43;;;;;;;23.27;3.40;;;;;;;;;;4967442;28;20628;-62
2022/06/18 15:04:11;;;;;;;39.73;4.10;;;;;;;;;;4982647;28;20686;-62
2022/06/18 15:06:37;;;;;;;5.80;2.40;;;;;;;;;;4983687;28;20271;-65
2022/06/18 15:09:05;;;;;;;5.93;2.63;;;;;;;;;;4963445;28;20229;-62
2022/06/18 15:11:37;;;;;;;5.13;2.90;;;;;;;;;;4952071;28;20235;-63
2022/06/18 15:14:22;;;;;;;6.00;3.40;;;;;;;;;;4947502;28;20681;-64
2022/06/18 15:19:43;;;;;;;13.13;3.30;;;;;;;;;;4940825;28;20291;-63
2022/06/18 15:22:25;;;;;;;9.27;3.20;;;;;;;;;;4947931;28;20243;-62
2022/06/18 15:27:37;;;;;;;35.70;4.17;;;;;;;;;;4956827;28;20271;-63
2022/06/18 15:30:17;;;;;;;19.87;4.00;;;;;;;;;;4956265;28;20249;-64
2022/06/18 15:32:43;;;;;;;15.07;3.40;;;;;;;;;;4958646;28;20315;-63
2022/06/18 15:35:16;;;;;;;12.47;5.53;;;;;;;;;;4944138;28;20584;-62
2022/06/18 15:37:50;;;;;;;14.70;4.80;;;;;;;;;;4970792;28;20232;-62
2022/06/18 15:40:25;;;;;;;4.50;3.00;;;;;;;;;;4958903;28;20259;-68